Time;durP1;ratioP1;P1;durP2;ratioP2;P2;SDS_P1;SDS_P2;PMS_P1;PMS_P2;Temp;Humidity;BMP_temperature;BMP_pressure;BME280_temperature;BME280_humidity;BME280_pressure;Samples;Min_cycle;Max_cycle;Signal;HPM_P1;HPM_P2
2022/09/05 00:02:00;;;;;;;3.70;1.92;;;21.00;65.30;;;;;;4952528;28;20073;-75
2022/09/05 00:04:32;;;;;;;2.78;1.70;;;20.90;65.80;;;;;;4973272;28;20053;-74
2022/09/05 00:07:22;;;;;;;2.72;1.63;;;20.90;65.80;;;;;;4973246;28;20039;-74
2022/09/05 00:10:09;;;;;;;4.00;1.85;;;20.90;65.80;;;;;;4973455;28;20045;-74
2022/09/05 00:12:36;;;;;;;3.20;1.70;;;20.90;66.00;;;;;;4973217;28;20043;-74
2022/09/05 00:15:17;;;;;;;1.73;1.58;;;20.90;66.60;;;;;;4972091;28;20037;-75
2022/09/05 00:18:06;;;;;;;2.90;1.80;;;20.80;66.20;;;;;;4973426;28;20121;-74
2022/09/05 00:21:02;;;;;;;3.38;1.73;;;20.80;66.40;;;;;;4964727;28;20042;-74
2022/09/05 00:23:56;;;;;;;3.58;1.75;;;20.80;66.30;;;;;;4968976;28;20043;-72
2022/09/05 00:26:46;;;;;;;3.53;2.05;;;20.80;66.30;;;;;;4972759;28;20031;-72
2022/09/05 00:29:31;;;;;;;5.50;2.03;;;20.80;66.30;;;;;;4972454;28;20380;-74
2022/09/05 00:32:02;;;;;;;3.33;1.65;;;20.70;66.90;;;;;;4972904;28;20047;-74
2022/09/05 00:34:40;;;;;;;1.90;1.55;;;20.60;66.80;;;;;;4972718;28;20059;-74
2022/09/05 00:37:09;;;;;;;3.17;1.60;;;20.70;66.70;;;;;;4972706;28;20470;-74
2022/09/05 00:39:41;;;;;;;3.20;1.90;;;20.60;67.00;;;;;;4971325;28;20315;-75
2022/09/05 00:42:15;;;;;;;5.40;1.92;;;20.60;67.10;;;;;;4972571;28;20038;-74
2022/09/05 00:44:58;;;;;;;1.73;1.27;;;20.50;67.20;;;;;;4972376;28;20042;-75
2022/09/05 00:47:51;;;;;;;5.45;2.13;;;20.50;67.20;;;;;;4971222;28;20445;-75
2022/09/05 00:50:43;;;;;;;2.45;1.75;;;20.50;67.30;;;;;;4972063;28;20030;-74
2022/09/05 00:53:31;;;;;;;2.50;1.80;;;20.60;67.20;;;;;;4972377;28;20299;-74
2022/09/05 00:56:16;;;;;;;1.70;1.60;;;20.50;67.30;;;;;;4972195;28;20034;-75
2022/09/05 00:59:09;;;;;;;4.50;1.70;;;20.50;67.40;;;;;;4972426;28;20026;-74
2022/09/05 01:01:43;;;;;;;2.70;1.83;;;20.50;67.30;;;;;;4972129;28;20390;-75
2022/09/05 01:04:34;;;;;;;4.80;1.80;;;20.50;67.50;;;;;;4971163;28;20031;-75
2022/09/05 01:07:18;;;;;;;2.28;1.80;;;20.50;67.10;;;;;;4971644;28;20031;-75
2022/09/05 01:09:49;;;;;;;6.65;1.80;;;20.50;67.70;;;;;;4972148;28;20105;-75
2022/09/05 01:12:55;;;;;;;5.55;2.00;;;20.50;67.60;;;;;;4986768;28;20376;-75
2022/09/05 01:15:55;;;;;;;2.90;1.70;;;20.40;67.80;;;;;;4962445;28;20045;-74
2022/09/05 01:18:31;;;;;;;3.13;2.00;;;20.40;67.80;;;;;;4968579;28;20054;-74
2022/09/05 01:21:23;;;;;;;2.85;1.92;;;20.40;68.00;;;;;;4971798;28;20038;-75
2022/09/05 01:23:56;;;;;;;3.67;1.90;;;20.30;68.40;;;;;;4971791;28;20125;-75
2022/09/05 01:26:44;;;;;;;3.35;1.98;;;20.30;68.50;;;;;;4971699;28;20023;-75
2022/09/05 01:29:37;;;;;;;2.78;1.85;;;20.30;68.70;;;;;;4972324;28;20450;-74
2022/09/05 01:32:32;;;;;;;2.95;2.08;;;20.00;69.40;;;;;;4972043;28;20186;-75
2022/09/05 01:35:35;;;;;;;3.38;2.10;;;20.00;69.50;;;;;;4973132;28;20042;-75
2022/09/05 01:38:18;;;;;;;3.13;1.65;;;20.10;69.30;;;;;;4991050;28;20346;-73
2022/09/05 01:40:55;;;;;;;1.80;1.50;;;20.10;69.30;;;;;;4991222;28;20050;-75
2022/09/05 01:43:51;;;;;;;2.72;1.83;;;20.10;69.70;;;;;;4989927;28;20149;-74
2022/09/05 01:46:29;;;;;;;2.10;1.60;;;20.10;69.50;;;;;;4986576;28;20113;-75
2022/09/05 01:49:11;;;;;;;2.08;1.63;;;20.10;69.50;;;;;;4991298;28;20117;-75
2022/09/05 01:51:53;;;;;;;3.85;1.83;;;20.10;69.70;;;;;;4990994;28;20726;-75
2022/09/05 01:54:32;;;;;;;3.28;1.80;;;20.10;69.50;;;;;;4990988;28;20081;-75
2022/09/05 01:57:00;;;;;;;6.00;2.08;;;20.10;69.70;;;;;;4991074;28;20035;-74
2022/09/05 01:59:56;;;;;;;2.33;1.65;;;20.10;69.50;;;;;;4991216;28;20251;-75
2022/09/05 02:02:36;;;;;;;3.28;1.92;;;20.00;69.90;;;;;;4990743;28;20084;-73
2022/09/05 02:05:21;;;;;;;3.95;1.63;;;20.10;69.90;;;;;;4990481;28;20037;-76
2022/09/05 02:08:12;;;;;;;4.82;1.98;;;19.90;69.80;;;;;;4989966;28;20062;-75
2022/09/05 02:11:00;;;;;;;4.38;2.00;;;20.00;70.10;;;;;;4989743;28;20118;-75
2022/09/05 02:13:35;;;;;;;5.93;1.88;;;20.00;70.00;;;;;;4989802;28;20093;-74
2022/09/05 02:16:32;;;;;;;4.32;2.08;;;19.90;70.40;;;;;;4990867;28;20479;-76
2022/09/05 02:19:11;;;;;;;4.65;2.10;;;19.90;70.40;;;;;;4990895;28;20043;-75
2022/09/05 02:21:48;;;;;;;2.95;1.75;;;19.90;70.50;;;;;;4989743;28;20051;-75
2022/09/05 02:24:33;;;;;;;3.97;2.00;;;19.90;70.80;;;;;;4989433;28;20364;-76
2022/09/05 02:27:18;;;;;;;2.58;1.75;;;19.90;70.50;;;;;;4990576;28;20027;-75
2022/09/05 02:30:13;;;;;;;2.30;1.52;;;19.80;70.40;;;;;;4990545;28;20088;-75
2022/09/05 02:33:03;;;;;;;2.70;1.85;;;19.80;71.20;;;;;;4989167;28;20125;-75
2022/09/05 02:35:37;;;;;;;2.85;2.00;;;19.80;71.20;;;;;;4989433;28;20069;-75
2022/09/05 02:38:05;;;;;;;1.95;1.67;;;19.60;71.80;;;;;;4990177;28;20026;-76
2022/09/05 02:40:55;;;;;;;2.85;1.92;;;19.70;72.00;;;;;;4990479;28;20515;-75
2022/09/05 02:44:08;;;;;;;8.18;1.98;;;19.70;72.20;;;;;;4990322;28;20033;-74
2022/09/05 02:46:56;;;;;;;2.65;1.67;;;19.60;72.20;;;;;;4949329;29;20035;-75
2022/09/05 02:49:49;;;;;;;3.78;2.00;;;19.60;72.50;;;;;;4990659;28;20058;-75
2022/09/05 02:52:18;;;;;;;5.07;2.38;;;19.60;72.70;;;;;;4991170;28;20030;-75
2022/09/05 02:54:49;;;;;;;7.22;2.10;;;19.60;72.50;;;;;;4993949;28;20046;-75
2022/09/05 02:57:40;;;;;;;10.13;2.28;;;19.60;72.80;;;;;;4993833;28;20404;-74
2022/09/05 03:00:14;;;;;;;3.35;1.90;;;19.50;73.00;;;;;;4992552;28;20038;-75
2022/09/05 03:03:33;;;;;;;3.47;1.80;;;19.50;73.30;;;;;;4993655;28;20042;-75
2022/09/05 03:06:20;;;;;;;3.80;2.20;;;19.50;72.80;;;;;;4991208;28;20045;-75
2022/09/05 03:08:57;;;;;;;3.70;1.88;;;19.50;72.90;;;;;;4993426;28;20444;-75
2022/09/05 03:11:58;;;;;;;6.68;2.50;;;19.40;72.90;;;;;;4993321;28;20078;-76
2022/09/05 03:14:26;;;;;;;2.47;1.88;;;19.40;73.30;;;;;;4999907;28;20034;-73
2022/09/05 03:17:16;;;;;;;3.03;1.98;;;19.30;74.10;;;;;;4993736;28;20061;-74
2022/09/05 03:20:07;;;;;;;3.25;2.17;;;19.40;74.20;;;;;;4993138;28;20147;-75
2022/09/05 03:23:00;;;;;;;3.50;1.98;;;19.40;74.60;;;;;;4991927;28;20037;-76
2022/09/05 03:25:26;;;;;;;3.33;2.17;;;19.30;75.00;;;;;;4992299;28;20034;-76
2022/09/05 03:28:07;;;;;;;4.15;2.10;;;19.30;75.00;;;;;;4992092;28;20022;-75
2022/09/05 03:30:58;;;;;;;3.75;2.55;;;19.30;75.00;;;;;;4993204;28;20060;-75
2022/09/05 03:33:52;;;;;;;5.03;2.05;;;19.20;75.50;;;;;;4992054;28;20401;-74
2022/09/05 03:36:44;;;;;;;5.97;2.38;;;19.20;75.70;;;;;;4991874;28;20034;-73
2022/09/05 03:39:55;;;;;;;6.25;1.95;;;19.20;75.90;;;;;;4992927;28;20038;-75
2022/09/05 03:42:54;;;;;;;3.75;2.28;;;19.30;75.70;;;;;;4992096;28;20476;-74
2022/09/05 03:45:41;;;;;;;4.68;2.28;;;19.30;75.80;;;;;;4992112;28;20026;-77
2022/09/05 03:48:23;;;;;;;5.90;2.45;;;19.30;75.80;;;;;;4993002;28;20376;-76
2022/09/05 03:51:05;;;;;;;7.10;2.13;;;19.30;75.90;;;;;;4992887;28;20054;-77
2022/09/05 03:54:20;;;;;;;7.10;2.30;;;19.40;75.60;;;;;;4992945;28;20042;-76
2022/09/05 03:57:17;;;;;;;3.75;2.08;;;19.40;75.80;;;;;;4991658;28;20033;-76
2022/09/05 04:00:10;;;;;;;5.43;2.33;;;19.30;76.00;;;;;;4992864;28;20030;-75
2022/09/05 04:02:54;;;;;;;7.05;2.88;;;19.40;76.10;;;;;;4992731;28;20500;-75
2022/09/05 04:05:31;;;;;;;4.30;2.30;;;19.40;76.20;;;;;;4990481;28;20121;-74
2022/09/05 04:08:48;;;;;;;5.95;2.20;;;19.40;75.90;;;;;;4992841;28;20025;-74
2022/09/05 04:11:16;;;;;;;8.63;2.70;;;19.30;76.70;;;;;;4972390;28;20046;-73
2022/09/05 04:13:53;;;;;;;13.45;2.15;;;19.30;77.00;;;;;;4973375;28;20126;-74
2022/09/05 04:16:30;;;;;;;10.07;2.58;;;19.30;77.00;;;;;;4988891;28;20104;-75
2022/09/05 04:19:05;;;;;;;10.07;2.30;;;19.30;77.30;;;;;;4992424;28;20097;-75
2022/09/05 04:21:58;;;;;;;5.53;2.85;;;19.40;77.00;;;;;;4992319;28;20264;-74
2022/09/05 04:24:30;;;;;;;5.40;2.33;;;19.40;77.10;;;;;;4992190;28;20031;-74
2022/09/05 04:27:19;;;;;;;6.82;2.63;;;19.40;77.30;;;;;;4992187;28;20469;-75
2022/09/05 04:30:14;;;;;;;7.93;2.72;;;19.40;77.10;;;;;;4992116;28;20038;-74
2022/09/05 04:32:53;;;;;;;7.30;2.25;;;19.30;77.50;;;;;;4992229;28;20037;-75
2022/09/05 04:35:36;;;;;;;7.60;2.67;;;19.40;77.60;;;;;;4992702;28;20105;-74
2022/09/05 04:38:15;;;;;;;5.07;2.22;;;19.40;77.60;;;;;;4991987;28;20566;-76
2022/09/05 04:40:49;;;;;;;8.45;2.67;;;19.40;77.80;;;;;;4991823;28;20058;-75
2022/09/05 04:43:21;;;;;;;5.65;2.60;;;19.40;77.80;;;;;;4991998;28;20041;-75
2022/09/05 04:46:05;;;;;;;7.70;2.92;;;19.40;77.60;;;;;;4991875;28;20392;-74
2022/09/05 04:48:41;;;;;;;18.90;3.75;;;19.40;77.90;;;;;;4991781;28;20500;-75
2022/09/05 04:51:44;;;;;;;10.68;2.42;;;19.40;78.30;;;;;;4990691;28;20033;-74
2022/09/05 04:54:34;;;;;;;14.00;3.50;;;19.40;78.00;;;;;;4990654;28;20034;-74
2022/09/05 04:57:19;;;;;;;4.45;2.58;;;19.40;77.90;;;;;;4991886;28;20034;-74
2022/09/05 05:00:02;;;;;;;6.90;2.80;;;19.40;78.20;;;;;;4991701;28;20465;-76
2022/09/05 05:02:43;;;;;;;10.50;2.65;;;19.40;78.40;;;;;;4991764;28;20501;-74
2022/09/05 05:05:22;;;;;;;4.60;3.13;;;19.40;78.40;;;;;;4990913;28;20384;-75
2022/09/05 05:07:52;;;;;;;12.43;3.45;;;19.40;78.90;;;;;;4991425;28;20046;-74
2022/09/05 05:10:25;;;;;;;8.82;3.05;;;19.40;78.90;;;;;;4991389;28;20441;-74
2022/09/05 05:13:00;;;;;;;14.52;3.75;;;19.40;79.40;;;;;;4991516;28;20114;-75
2022/09/05 05:15:29;;;;;;;10.00;2.95;;;19.40;79.60;;;;;;4991113;28;20266;-75
2022/09/05 05:18:22;;;;;;;15.43;3.60;;;19.40;79.70;;;;;;4991126;28;20042;-75
2022/09/05 05:21:05;;;;;;;25.60;6.03;;;19.40;80.00;;;;;;4990188;28;20034;-75
2022/09/05 05:23:53;;;;;;;50.40;7.47;;;19.30;80.20;;;;;;4991516;28;20162;-74
2022/09/05 05:26:42;;;;;;;;;;;19.30;80.50;;;;;;4991783;28;20360;-75
2022/09/05 05:29:14;;;;;;;10.43;3.78;;;19.40;80.90;;;;;;4990308;28;19917;-74
2022/09/05 05:32:01;;;;;;;17.63;4.78;;;19.40;80.60;;;;;;4991288;28;20034;-75
2022/09/05 05:34:42;;;;;;;16.65;4.65;;;19.40;80.50;;;;;;4990851;28;20109;-76
2022/09/05 05:37:16;;;;;;;12.77;3.97;;;19.40;80.80;;;;;;4990952;28;20332;-75
2022/09/05 05:39:51;;;;;;;14.80;4.13;;;19.40;81.10;;;;;;4991569;28;20030;-74
2022/09/05 05:42:22;;;;;;;11.13;3.95;;;19.40;81.30;;;;;;4991971;28;20302;-75
2022/09/05 05:44:53;;;;;;;11.95;3.33;;;19.50;81.40;;;;;;4991467;28;20046;-76
2022/09/05 05:47:22;;;;;;;14.18;4.30;;;19.50;81.50;;;;;;4991594;28;20077;-75
2022/09/05 05:50:00;;;;;;;16.50;3.72;;;19.50;81.90;;;;;;4990966;28;20042;-74
2022/09/05 05:52:36;;;;;;;19.40;3.20;;;19.50;81.90;;;;;;4991164;28;20038;-74
2022/09/05 05:55:17;;;;;;;14.07;4.05;;;19.60;82.10;;;;;;4990984;28;20349;-74
2022/09/05 05:58:08;;;;;;;11.68;3.85;;;19.50;82.50;;;;;;4990954;28;20480;-76
2022/09/05 06:01:05;;;;;;;14.50;3.83;;;19.60;82.40;;;;;;4991030;28;20046;-73
2022/09/05 06:03:36;;;;;;;12.52;3.70;;;19.50;83.20;;;;;;4990979;28;20496;-74
2022/09/05 06:06:14;;;;;;;9.00;3.33;;;19.50;83.10;;;;;;4990891;28;20044;-75
2022/09/05 06:09:05;;;;;;;12.05;3.30;;;19.60;83.40;;;;;;4990756;28;20026;-75
2022/09/05 06:12:10;;;;;;;11.30;3.63;;;19.50;83.50;;;;;;4990397;28;20042;-74
2022/09/05 06:15:12;;;;;;;11.07;3.60;;;19.50;84.00;;;;;;4991089;28;20031;-74
2022/09/05 06:17:57;;;;;;;12.05;4.30;;;19.60;83.50;;;;;;4989577;28;20030;-80
2022/09/05 06:21:00;;;;;;;15.95;4.80;;;19.40;84.60;;;;;;4991308;28;20034;-76
2022/09/05 06:24:14;;;;;;;11.50;3.65;;;19.40;84.60;;;;;;4991214;28;20433;-77
2022/09/05 06:27:18;;;;;;;15.07;4.82;;;19.50;84.60;;;;;;4950268;28;20046;-80
2022/09/05 06:30:08;;;;;;;15.85;3.45;;;19.60;85.30;;;;;;4923615;28;20360;-81
2022/09/05 06:33:06;;;;;;;16.25;4.05;;;19.60;85.50;;;;;;4994656;28;20360;-84
2022/09/05 06:35:47;;;;;;;5.20;3.40;;;19.60;85.30;;;;;;4996087;28;20072;-81
2022/09/05 06:38:26;;;;;;;12.07;4.32;;;19.80;84.60;;;;;;4996920;28;20069;-79
2022/09/05 06:41:49;;;;;;;7.55;3.72;;;19.80;85.10;;;;;;4994427;28;20487;-76
2022/09/05 06:44:39;;;;;;;10.88;4.57;;;19.80;85.10;;;;;;4938445;29;20118;-79
2022/09/05 06:47:14;;;;;;;11.27;5.00;;;19.80;85.90;;;;;;4954358;29;20470;-78
2022/09/05 06:50:09;;;;;;;13.23;3.65;;;19.90;84.80;;;;;;4983032;28;20044;-76
2022/09/05 06:52:49;;;;;;;13.02;4.10;;;19.90;85.80;;;;;;4981187;28;20345;-78
2022/09/05 06:55:15;;;;;;;6.57;3.75;;;20.00;85.70;;;;;;4973849;28;20418;-78
2022/09/05 06:58:02;;;;;;;12.70;3.95;;;20.00;85.70;;;;;;4990428;28;20035;-82
2022/09/05 07:00:37;;;;;;;21.27;5.00;;;20.10;85.80;;;;;;4975019;28;20043;-80
2022/09/05 07:03:41;;;;;;;9.77;3.90;;;20.20;86.00;;;;;;4975569;28;20137;-82
2022/09/05 07:06:21;;;;;;;12.02;4.47;;;20.30;85.90;;;;;;4961878;28;20466;-80
2022/09/05 07:08:52;;;;;;;10.57;4.00;;;20.30;86.10;;;;;;4956178;28;20312;-83
2022/09/05 07:11:42;;;;;;;10.60;3.78;;;20.40;86.30;;;;;;4956817;28;20481;-82
2022/09/05 07:14:33;;;;;;;17.17;4.85;;;20.50;85.70;;;;;;4970675;28;20097;-82
2022/09/05 07:17:23;;;;;;;10.15;4.50;;;20.70;85.60;;;;;;4956132;28;20043;-83
2022/09/05 07:19:57;;;;;;;9.70;4.50;;;20.70;85.50;;;;;;4956306;28;20070;-80
2022/09/05 07:22:53;;;;;;;7.38;3.53;;;20.80;85.40;;;;;;4971050;28;20505;-79
2022/09/05 07:25:31;;;;;;;9.02;3.50;;;20.90;85.30;;;;;;4970322;28;20047;-78
2022/09/05 07:28:09;;;;;;;6.93;3.42;;;21.00;84.90;;;;;;4955481;28;20447;-79
2022/09/05 07:30:36;;;;;;;;;;;21.10;84.90;;;;;;4956116;28;20421;-78
2022/09/05 07:33:03;;;;;;;7.20;3.95;;;21.10;84.60;;;;;;4956646;28;19911;-78
2022/09/05 07:35:37;;;;;;;7.97;3.53;;;21.30;83.60;;;;;;4956599;28;20023;-77
2022/09/05 07:38:05;;;;;;;6.55;3.97;;;21.40;83.70;;;;;;4955895;28;20039;-79
2022/09/05 07:40:38;;;;;;;13.95;4.35;;;21.50;84.00;;;;;;4970706;28;20031;-78
2022/09/05 07:43:11;;;;;;;8.32;3.90;;;21.50;83.70;;;;;;4956399;28;20460;-78
2022/09/05 07:45:55;;;;;;;6.63;4.22;;;21.50;83.60;;;;;;4970899;28;20058;-77
2022/09/05 07:48:23;;;;;;;9.15;4.05;;;21.60;83.50;;;;;;4954998;28;20065;-76
2022/09/05 07:51:01;;;;;;;5.53;3.60;;;21.80;82.90;;;;;;4954681;28;20062;-76
2022/09/05 07:53:27;;;;;;;;;;;21.80;82.60;;;;;;4954876;28;20031;-77
2022/09/05 07:55:57;;;;;;;11.98;4.15;;;21.90;82.30;;;;;;4955152;29;20335;-79
2022/09/05 07:58:30;;;;;;;8.88;3.85;;;22.00;82.30;;;;;;4969589;28;20491;-79
2022/09/05 08:00:57;;;;;;;9.13;4.40;;;22.00;82.10;;;;;;4954594;28;20055;-78
2022/09/05 08:03:26;;;;;;;8.65;3.85;;;22.10;82.30;;;;;;4970235;28;20462;-76
2022/09/05 08:05:53;;;;;;;7.65;3.97;;;22.10;82.20;;;;;;4954471;28;20098;-77
2022/09/05 08:08:29;;;;;;;5.87;3.70;;;22.20;82.10;;;;;;4954721;28;20399;-75
2022/09/05 08:11:00;;;;;;;11.05;3.72;;;22.40;82.00;;;;;;4954266;29;20113;-76
2022/09/05 08:13:51;;;;;;;16.02;4.47;;;22.40;81.60;;;;;;4969398;28;20023;-77
2022/09/05 08:16:21;;;;;;;9.45;4.00;;;22.40;81.50;;;;;;4954719;28;20046;-78
2022/09/05 08:18:48;;;;;;;13.68;4.20;;;22.50;81.30;;;;;;4955160;28;20470;-79
2022/09/05 08:21:59;;;;;;;16.67;6.13;;;22.40;81.00;;;;;;4954779;28;20061;-77
2022/09/05 08:24:54;;;;;;;12.43;6.13;;;22.50;81.10;;;;;;4954946;28;20028;-78
2022/09/05 08:27:24;;;;;;;7.45;4.90;;;22.60;80.80;;;;;;4954263;28;20105;-76
2022/09/05 08:30:00;;;;;;;10.98;3.90;;;22.70;80.60;;;;;;4953794;28;20031;-74
2022/09/05 08:32:25;;;;;;;10.07;4.38;;;22.80;80.10;;;;;;4953647;28;20023;-76
2022/09/05 08:35:20;;;;;;;7.47;3.80;;;22.80;79.90;;;;;;4969590;28;20023;-77
2022/09/05 08:37:49;;;;;;;7.50;3.92;;;22.80;79.80;;;;;;4957380;28;20043;-80
2022/09/05 08:40:28;;;;;;;8.90;3.72;;;23.00;79.80;;;;;;4954080;28;20035;-82
2022/09/05 08:43:16;;;;;;;6.00;3.38;;;23.10;79.40;;;;;;4954394;28;20040;-80
2022/09/05 08:45:54;;;;;;;6.47;3.72;;;23.30;79.10;;;;;;4968613;28;20369;-79
2022/09/05 08:48:51;;;;;;;12.80;4.38;;;23.80;78.30;;;;;;4968950;28;20035;-78
2022/09/05 08:51:16;;;;;;;10.80;5.05;;;23.90;77.40;;;;;;4953988;28;20371;-82
2022/09/05 08:53:58;;;;;;;6.88;4.00;;;23.90;77.50;;;;;;4969749;28;20034;-84
2022/09/05 08:56:44;;;;;;;16.42;4.03;;;23.90;76.70;;;;;;4955117;28;20131;-81
2022/09/05 08:59:28;;;;;;;13.57;4.43;;;24.10;76.60;;;;;;4954649;28;20454;-81
2022/09/05 09:01:54;;;;;;;8.93;4.80;;;24.40;75.80;;;;;;4954880;28;20130;-79
2022/09/05 09:04:27;;;;;;;12.57;3.70;;;24.50;75.90;;;;;;4953942;28;20179;-79
2022/09/05 09:07:11;;;;;;;10.20;3.65;;;25.00;74.90;;;;;;4957630;28;20050;-80
2022/09/05 09:09:49;;;;;;;7.00;3.38;;;25.70;73.60;;;;;;4955887;28;20406;-80
2022/09/05 09:12:33;;;;;;;;;;;27.20;73.40;;;;;;4954793;28;20386;-79
2022/09/05 09:15:10;;;;;;;7.85;3.53;;;27.90;66.60;;;;;;4955232;28;19914;-79
2022/09/05 09:17:42;;;;;;;13.68;4.15;;;28.90;67.30;;;;;;4954391;28;20335;-77
2022/09/05 09:20:26;;;;;;;5.72;3.20;;;29.60;64.40;;;;;;4955779;28;20484;-76
2022/09/05 09:23:01;;;;;;;6.60;3.05;;;30.30;60.50;;;;;;4954853;29;20035;-77
2022/09/05 09:25:47;;;;;;;8.45;3.50;;;30.70;59.80;;;;;;4953047;28;20043;-81
2022/09/05 09:28:34;;;;;;;9.50;3.70;;;30.50;58.20;;;;;;4954638;28;20024;-78
2022/09/05 09:31:33;;;;;;;10.77;3.88;;;31.00;58.50;;;;;;4961172;28;20038;-78
2022/09/05 09:34:18;;;;;;;8.27;3.97;;;30.60;57.30;;;;;;4965514;28;20031;-78
2022/09/05 09:37:18;;;;;;;10.73;3.42;;;30.70;57.10;;;;;;4971889;28;20489;-80
2022/09/05 09:40:05;;;;;;;7.43;3.22;;;31.50;57.00;;;;;;4970666;28;20568;-78
2022/09/05 09:42:50;;;;;;;6.32;2.95;;;32.70;55.40;;;;;;4972375;28;20066;-75
2022/09/05 09:45:28;;;;;;;6.20;3.13;;;33.40;54.00;;;;;;4972195;28;20035;-79
2022/09/05 09:47:56;;;;;;;5.78;3.85;;;34.00;52.50;;;;;;4972408;28;20047;-81
2022/09/05 09:51:05;;;;;;;7.57;2.85;;;34.00;51.80;;;;;;4973318;28;20023;-79
2022/09/05 09:53:37;;;;;;;4.78;2.75;;;34.60;50.60;;;;;;4961431;28;20034;-80
2022/09/05 09:56:39;;;;;;;11.00;5.32;;;34.70;48.90;;;;;;4990293;28;20438;-85
2022/09/05 09:59:40;;;;;;;8.57;4.18;;;34.60;50.10;;;;;;4938372;28;20044;-79
2022/09/05 10:02:23;;;;;;;6.07;3.30;;;34.90;49.20;;;;;;4973880;28;20038;-81
2022/09/05 10:05:30;;;;;;;5.88;3.05;;;34.50;48.30;;;;;;4977613;28;20127;-83
2022/09/05 10:08:27;;;;;;;6.13;3.17;;;34.20;48.20;;;;;;4991005;28;20030;-79
2022/09/05 10:11:11;;;;;;;7.78;3.42;;;34.30;48.70;;;;;;4975754;28;20059;-80
2022/09/05 10:14:01;;;;;;;5.10;3.42;;;34.40;48.10;;;;;;4976492;28;20035;-79
2022/09/05 10:17:00;;;;;;;6.63;3.75;;;35.20;47.50;;;;;;4990758;28;20031;-78
2022/09/05 10:20:03;;;;;;;8.95;3.42;;;34.90;46.80;;;;;;4991065;28;20062;-78
2022/09/05 10:22:43;;;;;;;4.90;2.50;;;35.00;46.70;;;;;;4991933;28;20117;-83
2022/09/05 10:25:26;;;;;;;9.32;3.35;;;36.00;45.70;;;;;;4992058;28;20035;-84
2022/09/05 10:28:06;;;;;;;7.25;3.10;;;35.80;46.00;;;;;;4975486;28;20035;-77
2022/09/05 10:31:09;;;;;;;8.20;3.50;;;36.00;45.70;;;;;;4990494;28;20042;-82
2022/09/05 10:33:42;;;;;;;8.05;3.38;;;36.00;44.50;;;;;;4990777;28;20035;-77
2022/09/05 10:36:29;;;;;;;16.42;6.88;;;36.00;46.30;;;;;;4975451;28;20035;-78
2022/09/05 10:39:14;;;;;;;8.68;3.28;;;36.40;44.00;;;;;;4975378;28;20070;-78
2022/09/05 10:41:48;;;;;;;7.70;3.28;;;36.10;44.80;;;;;;4975076;28;20035;-77
2022/09/05 10:44:23;;;;;;;7.40;3.20;;;37.10;44.60;;;;;;4974440;28;20120;-77
2022/09/05 10:47:34;;;;;;;8.57;3.10;;;37.10;42.70;;;;;;4975013;28;20042;-78
2022/09/05 10:50:03;;;;;;;7.10;3.40;;;37.70;43.10;;;;;;4990378;28;20043;-80
2022/09/05 10:53:16;;;;;;;9.30;3.35;;;37.60;42.80;;;;;;4990748;28;20058;-79
2022/09/05 10:55:50;;;;;;;4.70;3.05;;;37.60;41.60;;;;;;4969860;28;20027;-79
2022/09/05 10:58:42;;;;;;;8.60;4.20;;;38.10;41.20;;;;;;4974920;28;20050;-77
2022/09/05 11:01:08;;;;;;;4.45;3.17;;;37.00;41.90;;;;;;4989861;28;20365;-79
2022/09/05 11:03:49;;;;;;;13.70;3.83;;;37.30;41.20;;;;;;4974884;28;20449;-76
2022/09/05 11:06:22;;;;;;;6.07;3.03;;;36.90;41.10;;;;;;4973510;28;20289;-76
2022/09/05 11:09:05;;;;;;;4.60;3.20;;;37.30;41.40;;;;;;4973511;28;20059;-78
2022/09/05 11:11:44;;;;;;;5.47;2.90;;;37.10;41.00;;;;;;4974118;28;20047;-77
2022/09/05 11:14:35;;;;;;;9.80;6.85;;;37.00;41.10;;;;;;4974245;28;20034;-77
2022/09/05 11:17:36;;;;;;;8.88;2.90;;;36.50;41.70;;;;;;4989424;28;20361;-79
2022/09/05 11:20:49;;;;;;;6.55;2.88;;;36.20;41.80;;;;;;4974034;28;20361;-78
2022/09/05 11:23:29;;;;;;;4.50;2.90;;;35.80;42.30;;;;;;4974189;28;20043;-78
2022/09/05 11:26:06;;;;;;;5.40;3.30;;;35.40;42.40;;;;;;4974941;28;20042;-79
2022/09/05 11:28:43;;;;;;;7.60;4.07;;;34.70;43.30;;;;;;4974379;28;20122;-80
2022/09/05 11:31:17;;;;;;;8.40;3.22;;;34.00;44.20;;;;;;4974271;28;20031;-79
2022/09/05 11:34:05;;;;;;;10.82;3.10;;;33.50;45.00;;;;;;4973441;28;20057;-80
2022/09/05 11:36:47;;;;;;;5.40;3.45;;;32.70;45.80;;;;;;4974537;28;20463;-80
2022/09/05 11:39:37;;;;;;;9.93;3.28;;;32.70;46.20;;;;;;4974715;28;20347;-78
2022/09/05 11:42:18;;;;;;;16.55;3.33;;;32.60;46.60;;;;;;4974584;28;20569;-82
2022/09/05 11:44:49;;;;;;;7.70;4.40;;;32.50;46.50;;;;;;4974481;28;20035;-78
2022/09/05 11:47:33;;;;;;;5.15;3.20;;;32.30;47.30;;;;;;4974368;28;20031;-75
2022/09/05 11:50:20;;;;;;;9.15;3.17;;;32.30;47.10;;;;;;4974007;28;20133;-78
2022/09/05 11:53:00;;;;;;;13.27;8.55;;;32.20;47.20;;;;;;4974303;28;20469;-77
2022/09/05 11:55:37;;;;;;;13.20;3.38;;;32.10;47.60;;;;;;4988696;28;20130;-78
2022/09/05 11:58:20;;;;;;;4.22;3.15;;;32.10;47.70;;;;;;4972828;28;20507;-78
2022/09/05 12:01:14;;;;;;;5.03;3.00;;;32.00;47.90;;;;;;4973901;28;20043;-79
2022/09/05 12:03:58;;;;;;;4.38;2.72;;;31.70;48.00;;;;;;4974567;28;20026;-76
2022/09/05 12:07:01;;;;;;;6.93;3.15;;;31.40;48.70;;;;;;4974170;28;20043;-74
2022/09/05 12:09:31;;;;;;;11.95;3.17;;;31.20;49.10;;;;;;4988912;28;20059;-73
2022/09/05 12:12:29;;;;;;;10.15;3.45;;;31.20;49.60;;;;;;4973070;28;20035;-73
2022/09/05 12:15:10;;;;;;;46.65;7.05;;;31.10;49.90;;;;;;4953875;28;20023;-76
2022/09/05 12:17:59;;;;;;;6.05;3.03;;;30.90;50.30;;;;;;4973274;28;20061;-77
2022/09/05 12:20:55;;;;;;;7.30;2.92;;;31.00;50.50;;;;;;4973105;28;20047;-76
2022/09/05 12:23:25;;;;;;;7.67;3.57;;;30.70;50.10;;;;;;4963978;28;20384;-75
2022/09/05 12:25:56;;;;;;;8.85;3.13;;;30.50;50.60;;;;;;4972926;28;20106;-76
2022/09/05 12:28:35;;;;;;;5.70;2.85;;;30.50;51.70;;;;;;4973529;28;20530;-77
2022/09/05 12:31:18;;;;;;;7.40;3.03;;;30.50;51.20;;;;;;4973196;28;20113;-81
2022/09/05 12:33:50;;;;;;;6.18;3.08;;;30.50;51.10;;;;;;4988697;28;20567;-76
2022/09/05 12:36:15;;;;;;;4.22;3.13;;;30.30;51.60;;;;;;4973797;28;20113;-78
2022/09/05 12:38:52;;;;;;;5.45;3.50;;;30.30;51.80;;;;;;4973934;28;20198;-78
2022/09/05 12:41:24;;;;;;;5.83;3.30;;;30.30;51.40;;;;;;4973019;28;20034;-78
2022/09/05 12:44:00;;;;;;;5.50;3.28;;;30.30;51.90;;;;;;4973389;28;20268;-79
2022/09/05 12:46:45;;;;;;;8.80;3.10;;;30.40;51.30;;;;;;4973421;28;20047;-75
2022/09/05 12:49:29;;;;;;;6.43;3.15;;;30.40;51.20;;;;;;4973068;28;20469;-76
2022/09/05 12:52:03;;;;;;;7.10;3.13;;;30.40;51.60;;;;;;4973660;28;20034;-76
2022/09/05 12:55:02;;;;;;;4.80;2.90;;;30.30;51.50;;;;;;4972948;28;20085;-77
2022/09/05 12:57:34;;;;;;;7.75;3.58;;;30.30;51.30;;;;;;4972305;28;20622;-77
2022/09/05 13:00:15;;;;;;;12.73;3.40;;;30.30;52.20;;;;;;4972613;28;20039;-75
2022/09/05 13:02:45;;;;;;;9.85;3.60;;;30.20;52.10;;;;;;4972638;28;20109;-76
2022/09/05 13:05:25;;;;;;;15.43;3.22;;;30.30;51.90;;;;;;4973494;28;20027;-76
2022/09/05 13:07:57;;;;;;;6.50;3.03;;;30.30;51.80;;;;;;4972967;28;20053;-77
2022/09/05 13:10:38;;;;;;;8.30;2.80;;;30.20;52.00;;;;;;4973100;28;20026;-76
2022/09/05 13:13:12;;;;;;;9.45;2.90;;;30.20;51.90;;;;;;4972118;28;20058;-78
2022/09/05 13:15:46;;;;;;;8.07;3.25;;;30.20;52.10;;;;;;4973293;28;20514;-76
2022/09/05 13:18:17;;;;;;;8.63;3.20;;;30.20;51.90;;;;;;4972414;28;20039;-79
2022/09/05 13:20:50;;;;;;;11.80;3.47;;;30.00;51.90;;;;;;4972138;28;20035;-77
2022/09/05 13:23:21;;;;;;;4.57;2.83;;;30.00;52.20;;;;;;4973071;28;20441;-73
2022/09/05 13:26:16;;;;;;;46.13;5.40;;;30.00;52.20;;;;;;4973008;28;20042;-74
2022/09/05 13:29:22;;;;;;;11.90;3.15;;;29.90;52.00;;;;;;4971388;28;20468;-78
2022/09/05 13:31:52;;;;;;;5.33;2.57;;;29.90;52.40;;;;;;4971956;28;20143;-78
2022/09/05 13:34:39;;;;;;;7.50;2.95;;;29.70;52.60;;;;;;4987084;28;20039;-79
2022/09/05 13:37:29;;;;;;;7.97;2.70;;;29.70;52.70;;;;;;4972531;28;20089;-78
2022/09/05 13:40:18;;;;;;;5.45;2.90;;;29.70;52.50;;;;;;4972455;28;20549;-76
2022/09/05 13:42:56;;;;;;;6.25;2.30;;;29.60;52.40;;;;;;4972369;28;20039;-77
2022/09/05 13:45:22;;;;;;;18.55;12.90;;;29.50;52.60;;;;;;4971788;28;20473;-77
2022/09/05 13:48:03;;;;;;;4.38;3.20;;;29.50;52.50;;;;;;4972112;28;20065;-77
2022/09/05 13:50:40;;;;;;;4.88;2.25;;;29.50;52.40;;;;;;4971811;28;20030;-78
2022/09/05 13:53:11;;;;;;;6.45;2.70;;;29.50;52.60;;;;;;4972400;28;20098;-77
2022/09/05 13:55:57;;;;;;;5.10;2.33;;;29.40;52.60;;;;;;4971908;28;20053;-78
2022/09/05 13:58:28;;;;;;;8.23;2.53;;;29.50;52.50;;;;;;4971160;28;20042;-76
2022/09/05 14:01:13;;;;;;;3.65;2.28;;;29.40;52.30;;;;;;4971826;28;20038;-77
2022/09/05 14:04:04;;;;;;;5.32;2.45;;;29.30;52.60;;;;;;4972094;28;20046;-78
2022/09/05 14:07:13;;;;;;;6.13;2.15;;;29.30;52.90;;;;;;4972052;28;20037;-79
2022/09/05 14:09:48;;;;;;;4.53;2.60;;;29.30;53.20;;;;;;4971814;28;20039;-79